sensor_id;sensor_type;location;lat;lon;timestamp;P1;durP1;ratioP1;P2;durP2;ratioP2
31298;SDS011;17927;52.350;13.402;2023-11-21T00:02:12;3.97;;;2.00;;
31298;SDS011;17927;52.350;13.402;2023-11-21T00:04:37;1.27;;;1.17;;
31298;SDS011;17927;52.350;13.402;2023-11-21T00:07:02;1.45;;;1.00;;
31298;SDS011;17927;52.350;13.402;2023-11-21T00:09:28;2.88;;;1.25;;
31298;SDS011;17927;52.350;13.402;2023-11-21T00:11:53;2.20;;;1.40;;
31298;SDS011;17927;52.350;13.402;2023-11-21T00:14:18;2.38;;;1.20;;
31298;SDS011;17927;52.350;13.402;2023-11-21T00:16:43;3.83;;;1.65;;
31298;SDS011;17927;52.350;13.402;2023-11-21T00:19:09;2.60;;;1.45;;
31298;SDS011;17927;52.350;13.402;2023-11-21T00:21:34;4.72;;;1.45;;
31298;SDS011;17927;52.350;13.402;2023-11-21T00:23:59;4.47;;;1.60;;
31298;SDS011;17927;52.350;13.402;2023-11-21T00:26:24;2.72;;;1.80;;
31298;SDS011;17927;52.350;13.402;2023-11-21T00:28:50;3.17;;;1.65;;
31298;SDS011;17927;52.350;13.402;2023-11-21T00:31:15;2.50;;;1.23;;
31298;SDS011;17927;52.350;13.402;2023-11-21T00:33:41;2.22;;;1.42;;
31298;SDS011;17927;52.350;13.402;2023-11-21T00:36:06;4.93;;;1.52;;
31298;SDS011;17927;52.350;13.402;2023-11-21T00:38:34;3.53;;;1.30;;
31298;SDS011;17927;52.350;13.402;2023-11-21T00:41:00;1.63;;;1.17;;
31298;SDS011;17927;52.350;13.402;2023-11-21T00:43:25;1.77;;;1.35;;
31298;SDS011;17927;52.350;13.402;2023-11-21T00:45:50;4.47;;;1.15;;
31298;SDS011;17927;52.350;13.402;2023-11-21T00:48:16;0.98;;;0.90;;
31298;SDS011;17927;52.350;13.402;2023-11-21T00:50:41;2.08;;;1.10;;
31298;SDS011;17927;52.350;13.402;2023-11-21T00:53:07;2.50;;;1.13;;
31298;SDS011;17927;52.350;13.402;2023-11-21T00:55:36;1.45;;;1.00;;
31298;SDS011;17927;52.350;13.402;2023-11-21T00:58:01;1.55;;;1.45;;
31298;SDS011;17927;52.350;13.402;2023-11-21T01:00:29;2.25;;;2.15;;
31298;SDS011;17927;52.350;13.402;2023-11-21T01:02:54;2.13;;;2.03;;
31298;SDS011;17927;52.350;13.402;2023-11-21T01:05:20;3.30;;;2.58;;
31298;SDS011;17927;52.350;13.402;2023-11-21T01:07:45;2.95;;;2.70;;
31298;SDS011;17927;52.350;13.402;2023-11-21T01:10:10;3.30;;;3.10;;
31298;SDS011;17927;52.350;13.402;2023-11-21T01:12:36;2.78;;;2.58;;
31298;SDS011;17927;52.350;13.402;2023-11-21T01:15:02;3.28;;;3.08;;
31298;SDS011;17927;52.350;13.402;2023-11-21T01:17:36;4.40;;;3.97;;
31298;SDS011;17927;52.350;13.402;2023-11-21T01:20:03;4.78;;;4.35;;
31298;SDS011;17927;52.350;13.402;2023-11-21T01:22:35;5.20;;;4.80;;
31298;SDS011;17927;52.350;13.402;2023-11-21T01:25:00;4.85;;;4.38;;
31298;SDS011;17927;52.350;13.402;2023-11-21T01:27:26;5.85;;;5.18;;
31298;SDS011;17927;52.350;13.402;2023-11-21T01:29:51;5.07;;;4.68;;
31298;SDS011;17927;52.350;13.402;2023-11-21T01:32:18;6.88;;;6.20;;
31298;SDS011;17927;52.350;13.402;2023-11-21T01:34:43;11.82;;;8.32;;
31298;SDS011;17927;52.350;13.402;2023-11-21T01:37:09;14.02;;;8.85;;
31298;SDS011;17927;52.350;13.402;2023-11-21T01:39:37;12.20;;;8.85;;
31298;SDS011;17927;52.350;13.402;2023-11-21T01:42:04;14.20;;;10.18;;
31298;SDS011;17927;52.350;13.402;2023-11-21T01:44:29;11.32;;;10.00;;
31298;SDS011;17927;52.350;13.402;2023-11-21T01:46:55;12.95;;;9.77;;
31298;SDS011;17927;52.350;13.402;2023-11-21T01:49:22;12.60;;;9.88;;
31298;SDS011;17927;52.350;13.402;2023-11-21T01:51:48;14.50;;;11.00;;
31298;SDS011;17927;52.350;13.402;2023-11-21T01:54:15;19.08;;;11.40;;
31298;SDS011;17927;52.350;13.402;2023-11-21T01:56:42;17.05;;;11.43;;
31298;SDS011;17927;52.350;13.402;2023-11-21T01:59:10;16.60;;;11.13;;
31298;SDS011;17927;52.350;13.402;2023-11-21T02:01:37;17.00;;;11.43;;
31298;SDS011;17927;52.350;13.402;2023-11-21T02:04:02;16.40;;;12.07;;
31298;SDS011;17927;52.350;13.402;2023-11-21T02:06:28;15.10;;;10.48;;
31298;SDS011;17927;52.350;13.402;2023-11-21T02:08:56;20.27;;;12.00;;
31298;SDS011;17927;52.350;13.402;2023-11-21T02:11:21;17.70;;;11.93;;
31298;SDS011;17927;52.350;13.402;2023-11-21T02:13:46;18.27;;;11.98;;
31298;SDS011;17927;52.350;13.402;2023-11-21T02:16:12;17.83;;;12.65;;
31298;SDS011;17927;52.350;13.402;2023-11-21T02:18:37;21.25;;;12.80;;
31298;SDS011;17927;52.350;13.402;2023-11-21T02:21:04;24.02;;;14.07;;
31298;SDS011;17927;52.350;13.402;2023-11-21T02:23:30;26.13;;;14.60;;
31298;SDS011;17927;52.350;13.402;2023-11-21T02:25:55;28.13;;;14.68;;
31298;SDS011;17927;52.350;13.402;2023-11-21T02:28:21;26.73;;;15.20;;
31298;SDS011;17927;52.350;13.402;2023-11-21T02:30:50;27.58;;;15.18;;
31298;SDS011;17927;52.350;13.402;2023-11-21T02:33:20;24.20;;;14.95;;
31298;SDS011;17927;52.350;13.402;2023-11-21T02:35:45;28.20;;;14.20;;
31298;SDS011;17927;52.350;13.402;2023-11-21T02:38:11;25.85;;;13.85;;
31298;SDS011;17927;52.350;13.402;2023-11-21T02:40:37;27.25;;;14.18;;
31298;SDS011;17927;52.350;13.402;2023-11-21T02:43:02;24.88;;;15.23;;
31298;SDS011;17927;52.350;13.402;2023-11-21T02:45:28;29.67;;;15.40;;
31298;SDS011;17927;52.350;13.402;2023-11-21T02:47:53;29.48;;;15.48;;
31298;SDS011;17927;52.350;13.402;2023-11-21T02:50:21;29.52;;;14.57;;
31298;SDS011;17927;52.350;13.402;2023-11-21T02:52:47;25.83;;;13.65;;
31298;SDS011;17927;52.350;13.402;2023-11-21T02:55:12;21.55;;;11.82;;
31298;SDS011;17927;52.350;13.402;2023-11-21T02:57:38;21.77;;;11.27;;
31298;SDS011;17927;52.350;13.402;2023-11-21T03:00:03;20.10;;;10.98;;
31298;SDS011;17927;52.350;13.402;2023-11-21T03:02:32;17.98;;;9.98;;
31298;SDS011;17927;52.350;13.402;2023-11-21T03:04:57;25.00;;;12.25;;
31298;SDS011;17927;52.350;13.402;2023-11-21T03:07:22;16.48;;;10.35;;
31298;SDS011;17927;52.350;13.402;2023-11-21T03:09:48;19.73;;;10.48;;
31298;SDS011;17927;52.350;13.402;2023-11-21T03:12:13;18.67;;;10.35;;
31298;SDS011;17927;52.350;13.402;2023-11-21T03:14:39;19.77;;;10.65;;
31298;SDS011;17927;52.350;13.402;2023-11-21T03:17:05;19.95;;;10.57;;
31298;SDS011;17927;52.350;13.402;2023-11-21T03:19:30;19.48;;;10.02;;
31298;SDS011;17927;52.350;13.402;2023-11-21T03:21:56;19.52;;;10.68;;
31298;SDS011;17927;52.350;13.402;2023-11-21T03:24:21;20.23;;;11.02;;
31298;SDS011;17927;52.350;13.402;2023-11-21T03:26:47;19.55;;;10.20;;
31298;SDS011;17927;52.350;13.402;2023-11-21T03:29:13;25.02;;;9.80;;
31298;SDS011;17927;52.350;13.402;2023-11-21T03:31:39;22.23;;;11.25;;
31298;SDS011;17927;52.350;13.402;2023-11-21T03:34:04;17.58;;;9.73;;
31298;SDS011;17927;52.350;13.402;2023-11-21T03:36:30;20.25;;;9.80;;
31298;SDS011;17927;52.350;13.402;2023-11-21T03:38:55;20.35;;;10.02;;
31298;SDS011;17927;52.350;13.402;2023-11-21T03:41:20;19.58;;;10.80;;
31298;SDS011;17927;52.350;13.402;2023-11-21T03:43:46;18.75;;;9.40;;
31298;SDS011;17927;52.350;13.402;2023-11-21T03:46:11;19.63;;;9.30;;
31298;SDS011;17927;52.350;13.402;2023-11-21T03:48:37;16.80;;;10.05;;
31298;SDS011;17927;52.350;13.402;2023-11-21T03:51:02;18.17;;;9.65;;
31298;SDS011;17927;52.350;13.402;2023-11-21T03:53:28;18.75;;;10.45;;
31298;SDS011;17927;52.350;13.402;2023-11-21T03:55:53;14.75;;;8.63;;
31298;SDS011;17927;52.350;13.402;2023-11-21T03:58:18;14.88;;;8.43;;
31298;SDS011;17927;52.350;13.402;2023-11-21T04:00:44;12.93;;;8.38;;
31298;SDS011;17927;52.350;13.402;2023-11-21T04:03:09;9.85;;;8.30;;
31298;SDS011;17927;52.350;13.402;2023-11-21T04:05:34;11.23;;;7.55;;
31298;SDS011;17927;52.350;13.402;2023-11-21T04:07:59;11.88;;;8.55;;
31298;SDS011;17927;52.350;13.402;2023-11-21T04:10:25;11.05;;;7.93;;
31298;SDS011;17927;52.350;13.402;2023-11-21T04:12:50;13.35;;;8.05;;
31298;SDS011;17927;52.350;13.402;2023-11-21T04:15:15;12.27;;;8.63;;
31298;SDS011;17927;52.350;13.402;2023-11-21T04:17:41;12.63;;;8.90;;
31298;SDS011;17927;52.350;13.402;2023-11-21T04:20:07;10.38;;;8.55;;
31298;SDS011;17927;52.350;13.402;2023-11-21T04:22:40;10.63;;;7.72;;
31298;SDS011;17927;52.350;13.402;2023-11-21T04:25:08;8.85;;;7.60;;
31298;SDS011;17927;52.350;13.402;2023-11-21T04:27:36;8.43;;;7.40;;
31298;SDS011;17927;52.350;13.402;2023-11-21T04:30:01;10.35;;;7.40;;
31298;SDS011;17927;52.350;13.402;2023-11-21T04:32:26;8.52;;;7.18;;
31298;SDS011;17927;52.350;13.402;2023-11-21T04:34:52;8.32;;;7.53;;
31298;SDS011;17927;52.350;13.402;2023-11-21T04:37:17;11.02;;;7.03;;
31298;SDS011;17927;52.350;13.402;2023-11-21T04:39:42;8.50;;;7.00;;
31298;SDS011;17927;52.350;13.402;2023-11-21T04:42:07;8.07;;;7.15;;
31298;SDS011;17927;52.350;13.402;2023-11-21T04:44:33;7.63;;;6.60;;
31298;SDS011;17927;52.350;13.402;2023-11-21T04:46:58;7.95;;;7.15;;
31298;SDS011;17927;52.350;13.402;2023-11-21T04:49:23;7.65;;;6.95;;
31298;SDS011;17927;52.350;13.402;2023-11-21T04:51:48;8.02;;;7.13;;
31298;SDS011;17927;52.350;13.402;2023-11-21T04:54:14;27.45;;;19.67;;
31298;SDS011;17927;52.350;13.402;2023-11-21T04:56:39;28.38;;;18.90;;
31298;SDS011;17927;52.350;13.402;2023-11-21T04:59:04;20.85;;;15.05;;
31298;SDS011;17927;52.350;13.402;2023-11-21T05:01:29;15.73;;;12.20;;
31298;SDS011;17927;52.350;13.402;2023-11-21T05:03:54;17.52;;;12.35;;
31298;SDS011;17927;52.350;13.402;2023-11-21T05:06:21;21.17;;;15.23;;
31298;SDS011;17927;52.350;13.402;2023-11-21T05:08:48;18.25;;;13.73;;
31298;SDS011;17927;52.350;13.402;2023-11-21T05:11:22;16.70;;;12.75;;
31298;SDS011;17927;52.350;13.402;2023-11-21T05:13:49;12.40;;;10.45;;
31298;SDS011;17927;52.350;13.402;2023-11-21T05:16:14;14.10;;;10.15;;
31298;SDS011;17927;52.350;13.402;2023-11-21T05:18:39;9.60;;;7.53;;
31298;SDS011;17927;52.350;13.402;2023-11-21T05:21:05;8.45;;;6.47;;
31298;SDS011;17927;52.350;13.402;2023-11-21T05:23:30;5.75;;;5.25;;
31298;SDS011;17927;52.350;13.402;2023-11-21T05:25:55;6.50;;;5.90;;
31298;SDS011;17927;52.350;13.402;2023-11-21T05:28:22;6.22;;;5.72;;
31298;SDS011;17927;52.350;13.402;2023-11-21T05:30:47;5.68;;;5.18;;
31298;SDS011;17927;52.350;13.402;2023-11-21T05:33:12;5.80;;;5.35;;
31298;SDS011;17927;52.350;13.402;2023-11-21T05:35:37;6.05;;;5.45;;
31298;SDS011;17927;52.350;13.402;2023-11-21T05:38:03;6.03;;;5.50;;
31298;SDS011;17927;52.350;13.402;2023-11-21T05:40:28;6.10;;;5.50;;
31298;SDS011;17927;52.350;13.402;2023-11-21T05:42:55;6.28;;;5.68;;
31298;SDS011;17927;52.350;13.402;2023-11-21T05:45:21;6.57;;;5.90;;
31298;SDS011;17927;52.350;13.402;2023-11-21T05:47:46;6.18;;;5.57;;
31298;SDS011;17927;52.350;13.402;2023-11-21T05:50:12;5.75;;;5.15;;
31298;SDS011;17927;52.350;13.402;2023-11-21T05:52:42;8.27;;;5.28;;
31298;SDS011;17927;52.350;13.402;2023-11-21T05:55:09;8.00;;;7.10;;
31298;SDS011;17927;52.350;13.402;2023-11-21T05:57:35;7.03;;;5.63;;
31298;SDS011;17927;52.350;13.402;2023-11-21T06:00:07;5.50;;;5.00;;
31298;SDS011;17927;52.350;13.402;2023-11-21T06:02:43;6.18;;;5.57;;
31298;SDS011;17927;52.350;13.402;2023-11-21T06:05:08;5.85;;;5.35;;
31298;SDS011;17927;52.350;13.402;2023-11-21T06:07:34;5.15;;;4.75;;
31298;SDS011;17927;52.350;13.402;2023-11-21T06:10:00;6.22;;;5.45;;
31298;SDS011;17927;52.350;13.402;2023-11-21T06:12:35;6.53;;;5.93;;
31298;SDS011;17927;52.350;13.402;2023-11-21T06:15:04;5.88;;;5.40;;
31298;SDS011;17927;52.350;13.402;2023-11-21T06:17:30;5.97;;;5.38;;
31298;SDS011;17927;52.350;13.402;2023-11-21T06:19:56;7.07;;;5.95;;
31298;SDS011;17927;52.350;13.402;2023-11-21T06:22:22;5.68;;;5.15;;
31298;SDS011;17927;52.350;13.402;2023-11-21T06:24:47;6.28;;;5.68;;
31298;SDS011;17927;52.350;13.402;2023-11-21T06:27:12;8.80;;;5.50;;
31298;SDS011;17927;52.350;13.402;2023-11-21T06:29:38;6.32;;;5.72;;
31298;SDS011;17927;52.350;13.402;2023-11-21T06:32:03;6.93;;;5.53;;
31298;SDS011;17927;52.350;13.402;2023-11-21T06:34:30;7.05;;;5.68;;
31298;SDS011;17927;52.350;13.402;2023-11-21T06:36:55;6.07;;;5.55;;
31298;SDS011;17927;52.350;13.402;2023-11-21T06:39:21;5.78;;;5.20;;
31298;SDS011;17927;52.350;13.402;2023-11-21T06:41:47;4.68;;;4.35;;
31298;SDS011;17927;52.350;13.402;2023-11-21T06:44:13;4.70;;;4.30;;
31298;SDS011;17927;52.350;13.402;2023-11-21T06:46:39;4.85;;;4.45;;
31298;SDS011;17927;52.350;13.402;2023-11-21T06:49:07;4.88;;;4.40;;
31298;SDS011;17927;52.350;13.402;2023-11-21T06:51:32;5.10;;;4.63;;
31298;SDS011;17927;52.350;13.402;2023-11-21T06:53:57;4.97;;;4.57;;
31298;SDS011;17927;52.350;13.402;2023-11-21T06:56:23;6.28;;;5.45;;
31298;SDS011;17927;52.350;13.402;2023-11-21T06:58:48;5.90;;;5.40;;
31298;SDS011;17927;52.350;13.402;2023-11-21T07:01:14;6.28;;;5.25;;
31298;SDS011;17927;52.350;13.402;2023-11-21T07:03:40;6.15;;;5.57;;
31298;SDS011;17927;52.350;13.402;2023-11-21T07:06:06;5.97;;;5.22;;
31298;SDS011;17927;52.350;13.402;2023-11-21T07:08:32;5.18;;;4.65;;
31298;SDS011;17927;52.350;13.402;2023-11-21T07:10:57;5.80;;;5.20;;
31298;SDS011;17927;52.350;13.402;2023-11-21T07:13:23;6.45;;;5.85;;
31298;SDS011;17927;52.350;13.402;2023-11-21T07:15:48;5.60;;;5.10;;
31298;SDS011;17927;52.350;13.402;2023-11-21T07:18:14;5.65;;;4.43;;
31298;SDS011;17927;52.350;13.402;2023-11-21T07:20:39;4.78;;;4.35;;
31298;SDS011;17927;52.350;13.402;2023-11-21T07:23:04;4.82;;;4.43;;
31298;SDS011;17927;52.350;13.402;2023-11-21T07:25:30;4.88;;;4.25;;
31298;SDS011;17927;52.350;13.402;2023-11-21T07:27:56;5.78;;;4.38;;
31298;SDS011;17927;52.350;13.402;2023-11-21T07:30:22;4.95;;;4.50;;
31298;SDS011;17927;52.350;13.402;2023-11-21T07:32:47;5.53;;;4.95;;
31298;SDS011;17927;52.350;13.402;2023-11-21T07:35:13;4.63;;;4.22;;
31298;SDS011;17927;52.350;13.402;2023-11-21T07:37:38;4.35;;;4.03;;
31298;SDS011;17927;52.350;13.402;2023-11-21T07:40:04;5.10;;;4.40;;
31298;SDS011;17927;52.350;13.402;2023-11-21T07:42:30;5.43;;;4.90;;
31298;SDS011;17927;52.350;13.402;2023-11-21T07:44:55;4.10;;;3.72;;
31298;SDS011;17927;52.350;13.402;2023-11-21T07:47:21;5.57;;;4.90;;
31298;SDS011;17927;52.350;13.402;2023-11-21T07:49:46;5.07;;;4.68;;
31298;SDS011;17927;52.350;13.402;2023-11-21T07:52:12;5.43;;;4.93;;
31298;SDS011;17927;52.350;13.402;2023-11-21T07:54:38;5.40;;;5.00;;
31298;SDS011;17927;52.350;13.402;2023-11-21T07:57:03;5.47;;;4.97;;
31298;SDS011;17927;52.350;13.402;2023-11-21T07:59:29;4.93;;;4.50;;
31298;SDS011;17927;52.350;13.402;2023-11-21T08:01:54;7.20;;;5.28;;
31298;SDS011;17927;52.350;13.402;2023-11-21T08:04:20;4.95;;;4.55;;
31298;SDS011;17927;52.350;13.402;2023-11-21T08:06:45;4.28;;;3.97;;
31298;SDS011;17927;52.350;13.402;2023-11-21T08:09:10;4.88;;;4.20;;
31298;SDS011;17927;52.350;13.402;2023-11-21T08:11:37;4.68;;;4.28;;
31298;SDS011;17927;52.350;13.402;2023-11-21T08:14:04;4.22;;;3.92;;
31298;SDS011;17927;52.350;13.402;2023-11-21T08:16:29;4.25;;;3.95;;
31298;SDS011;17927;52.350;13.402;2023-11-21T08:18:55;5.35;;;4.13;;
31298;SDS011;17927;52.350;13.402;2023-11-21T08:21:20;4.35;;;3.95;;
31298;SDS011;17927;52.350;13.402;2023-11-21T08:23:46;4.55;;;3.55;;
31298;SDS011;17927;52.350;13.402;2023-11-21T08:26:12;3.85;;;3.55;;
31298;SDS011;17927;52.350;13.402;2023-11-21T08:28:38;3.72;;;3.35;;
31298;SDS011;17927;52.350;13.402;2023-11-21T08:31:03;4.45;;;4.00;;
31298;SDS011;17927;52.350;13.402;2023-11-21T08:33:29;4.22;;;3.70;;
31298;SDS011;17927;52.350;13.402;2023-11-21T08:35:54;5.68;;;3.55;;
31298;SDS011;17927;52.350;13.402;2023-11-21T08:38:20;5.55;;;4.55;;
31298;SDS011;17927;52.350;13.402;2023-11-21T08:40:45;7.05;;;4.45;;
31298;SDS011;17927;52.350;13.402;2023-11-21T08:43:10;8.02;;;5.18;;
31298;SDS011;17927;52.350;13.402;2023-11-21T08:45:37;10.77;;;5.63;;
31298;SDS011;17927;52.350;13.402;2023-11-21T08:48:02;15.48;;;7.10;;
31298;SDS011;17927;52.350;13.402;2023-11-21T08:50:28;12.77;;;5.93;;
31298;SDS011;17927;52.350;13.402;2023-11-21T08:52:53;13.73;;;7.28;;
31298;SDS011;17927;52.350;13.402;2023-11-21T08:55:19;15.52;;;7.25;;
31298;SDS011;17927;52.350;13.402;2023-11-21T08:57:45;10.88;;;6.47;;
31298;SDS011;17927;52.350;13.402;2023-11-21T09:00:11;16.90;;;7.20;;
31298;SDS011;17927;52.350;13.402;2023-11-21T09:02:38;15.05;;;8.10;;
31298;SDS011;17927;52.350;13.402;2023-11-21T09:05:06;11.90;;;6.78;;
31298;SDS011;17927;52.350;13.402;2023-11-21T09:07:33;14.75;;;7.10;;
31298;SDS011;17927;52.350;13.402;2023-11-21T09:09:59;14.13;;;6.82;;
31298;SDS011;17927;52.350;13.402;2023-11-21T09:12:24;17.20;;;7.90;;
31298;SDS011;17927;52.350;13.402;2023-11-21T09:14:50;13.68;;;6.68;;
31298;SDS011;17927;52.350;13.402;2023-11-21T09:17:15;9.75;;;6.07;;
31298;SDS011;17927;52.350;13.402;2023-11-21T09:19:41;12.32;;;5.68;;
31298;SDS011;17927;52.350;13.402;2023-11-21T09:22:06;16.83;;;6.85;;
31298;SDS011;17927;52.350;13.402;2023-11-21T09:24:32;15.73;;;6.78;;
31298;SDS011;17927;52.350;13.402;2023-11-21T09:26:58;14.65;;;6.65;;
31298;SDS011;17927;52.350;13.402;2023-11-21T09:29:24;16.38;;;6.97;;
31298;SDS011;17927;52.350;13.402;2023-11-21T09:31:50;11.15;;;5.90;;
31298;SDS011;17927;52.350;13.402;2023-11-21T09:34:16;11.90;;;6.15;;
31298;SDS011;17927;52.350;13.402;2023-11-21T09:36:44;14.77;;;6.50;;
31298;SDS011;17927;52.350;13.402;2023-11-21T09:39:10;10.68;;;5.88;;
31298;SDS011;17927;52.350;13.402;2023-11-21T09:41:46;10.75;;;5.38;;
31298;SDS011;17927;52.350;13.402;2023-11-21T09:44:17;6.60;;;4.60;;
31298;SDS011;17927;52.350;13.402;2023-11-21T09:46:44;7.63;;;4.80;;
31298;SDS011;17927;52.350;13.402;2023-11-21T09:49:14;8.85;;;4.65;;
31298;SDS011;17927;52.350;13.402;2023-11-21T09:51:42;8.55;;;4.57;;
31298;SDS011;17927;52.350;13.402;2023-11-21T09:54:08;7.43;;;3.83;;
31298;SDS011;17927;52.350;13.402;2023-11-21T09:56:35;5.75;;;3.92;;
31298;SDS011;17927;52.350;13.402;2023-11-21T09:59:02;6.10;;;4.25;;
31298;SDS011;17927;52.350;13.402;2023-11-21T10:01:31;7.32;;;4.47;;
31298;SDS011;17927;52.350;13.402;2023-11-21T10:03:57;6.93;;;3.80;;
31298;SDS011;17927;52.350;13.402;2023-11-21T10:06:24;8.48;;;3.92;;
31298;SDS011;17927;52.350;13.402;2023-11-21T10:08:51;11.90;;;4.97;;
31298;SDS011;17927;52.350;13.402;2023-11-21T10:11:18;7.50;;;4.55;;
31298;SDS011;17927;52.350;13.402;2023-11-21T10:13:44;9.02;;;4.35;;
31298;SDS011;17927;52.350;13.402;2023-11-21T10:16:11;9.35;;;4.25;;
31298;SDS011;17927;52.350;13.402;2023-11-21T10:18:41;6.40;;;3.70;;
31298;SDS011;17927;52.350;13.402;2023-11-21T10:21:07;4.15;;;3.10;;
31298;SDS011;17927;52.350;13.402;2023-11-21T10:23:34;2.88;;;2.67;;
31298;SDS011;17927;52.350;13.402;2023-11-21T10:25:59;4.32;;;2.38;;
31298;SDS011;17927;52.350;13.402;2023-11-21T10:28:25;6.15;;;2.63;;
31298;SDS011;17927;52.350;13.402;2023-11-21T10:30:50;2.90;;;2.60;;
31298;SDS011;17927;52.350;13.402;2023-11-21T10:33:16;4.68;;;2.63;;
31298;SDS011;17927;52.350;13.402;2023-11-21T10:38:06;3.17;;;2.87;;
31298;SDS011;17927;52.350;13.402;2023-11-21T10:40:34;3.58;;;2.60;;
31298;SDS011;17927;52.350;13.402;2023-11-21T10:43:07;3.38;;;2.47;;
31298;SDS011;17927;52.350;13.402;2023-11-21T10:45:37;1.88;;;1.67;;
31298;SDS011;17927;52.350;13.402;2023-11-21T10:48:06;2.42;;;2.20;;
31298;SDS011;17927;52.350;13.402;2023-11-21T10:50:36;2.08;;;1.42;;
31298;SDS011;17927;52.350;13.402;2023-11-21T10:53:05;3.28;;;1.90;;
31298;SDS011;17927;52.350;13.402;2023-11-21T10:55:31;1.55;;;1.45;;
31298;SDS011;17927;52.350;13.402;2023-11-21T10:58:01;1.52;;;1.40;;
31298;SDS011;17927;52.350;13.402;2023-11-21T11:00:29;1.27;;;1.17;;
31298;SDS011;17927;52.350;13.402;2023-11-21T11:02:54;1.05;;;1.05;;
31298;SDS011;17927;52.350;13.402;2023-11-21T11:05:20;2.60;;;1.20;;
31298;SDS011;17927;52.350;13.402;2023-11-21T11:07:48;1.50;;;1.40;;
31298;SDS011;17927;52.350;13.402;2023-11-21T11:10:19;1.40;;;1.30;;
31298;SDS011;17927;52.350;13.402;2023-11-21T11:12:47;1.40;;;1.30;;
31298;SDS011;17927;52.350;13.402;2023-11-21T11:15:13;1.88;;;1.60;;
31298;SDS011;17927;52.350;13.402;2023-11-21T11:17:40;1.63;;;1.52;;
31298;SDS011;17927;52.350;13.402;2023-11-21T11:20:06;1.40;;;1.30;;
31298;SDS011;17927;52.350;13.402;2023-11-21T11:28:39;2.85;;;1.52;;
31298;SDS011;17927;52.350;13.402;2023-11-21T11:31:14;1.98;;;1.63;;
31298;SDS011;17927;52.350;13.402;2023-11-21T11:33:53;1.63;;;1.42;;
31298;SDS011;17927;52.350;13.402;2023-11-21T11:36:37;1.35;;;1.30;;
31298;SDS011;17927;52.350;13.402;2023-11-21T11:42:07;1.48;;;1.38;;
31298;SDS011;17927;52.350;13.402;2023-11-21T11:47:13;1.33;;;1.25;;
31298;SDS011;17927;52.350;13.402;2023-11-21T11:52:34;2.17;;;1.58;;
31298;SDS011;17927;52.350;13.402;2023-11-21T11:55:01;1.83;;;1.38;;
31298;SDS011;17927;52.350;13.402;2023-11-21T11:57:32;1.70;;;1.60;;
31298;SDS011;17927;52.350;13.402;2023-11-21T12:00:09;1.42;;;1.33;;
31298;SDS011;17927;52.350;13.402;2023-11-21T12:02:35;1.80;;;1.70;;
31298;SDS011;17927;52.350;13.402;2023-11-21T12:05:06;1.85;;;1.73;;
31298;SDS011;17927;52.350;13.402;2023-11-21T12:07:46;1.85;;;1.73;;
31298;SDS011;17927;52.350;13.402;2023-11-21T12:10:19;2.10;;;1.92;;
31298;SDS011;17927;52.350;13.402;2023-11-21T12:12:50;2.13;;;2.00;;
31298;SDS011;17927;52.350;13.402;2023-11-21T12:15:17;2.08;;;1.98;;
31298;SDS011;17927;52.350;13.402;2023-11-21T12:17:44;2.25;;;2.15;;
31298;SDS011;17927;52.350;13.402;2023-11-21T12:20:10;2.58;;;1.98;;
31298;SDS011;17927;52.350;13.402;2023-11-21T12:22:48;2.28;;;1.95;;
31298;SDS011;17927;52.350;13.402;2023-11-21T12:25:15;3.63;;;1.80;;
31298;SDS011;17927;52.350;13.402;2023-11-21T12:27:43;1.85;;;1.75;;
31298;SDS011;17927;52.350;13.402;2023-11-21T12:30:10;2.22;;;2.03;;
31298;SDS011;17927;52.350;13.402;2023-11-21T12:32:39;5.45;;;2.25;;
31298;SDS011;17927;52.350;13.402;2023-11-21T12:35:05;2.78;;;2.00;;
31298;SDS011;17927;52.350;13.402;2023-11-21T12:37:31;3.65;;;1.92;;
31298;SDS011;17927;52.350;13.402;2023-11-21T12:39:57;2.45;;;1.60;;
31298;SDS011;17927;52.350;13.402;2023-11-21T12:42:22;1.85;;;1.75;;
31298;SDS011;17927;52.350;13.402;2023-11-21T12:44:48;2.08;;;1.83;;
31298;SDS011;17927;52.350;13.402;2023-11-21T12:49:55;1.73;;;1.63;;
31298;SDS011;17927;52.350;13.402;2023-11-21T12:52:23;1.92;;;1.73;;
31298;SDS011;17927;52.350;13.402;2023-11-21T12:54:49;1.92;;;1.83;;
31298;SDS011;17927;52.350;13.402;2023-11-21T12:57:15;2.92;;;2.05;;
31298;SDS011;17927;52.350;13.402;2023-11-21T12:59:40;2.08;;;1.80;;
31298;SDS011;17927;52.350;13.402;2023-11-21T13:02:07;2.25;;;1.98;;
31298;SDS011;17927;52.350;13.402;2023-11-21T13:04:33;1.98;;;1.88;;
31298;SDS011;17927;52.350;13.402;2023-11-21T13:07:03;2.05;;;1.95;;
31298;SDS011;17927;52.350;13.402;2023-11-21T13:09:32;3.47;;;2.30;;
31298;SDS011;17927;52.350;13.402;2023-11-21T13:12:01;2.80;;;2.15;;
31298;SDS011;17927;52.350;13.402;2023-11-21T13:14:29;2.10;;;1.90;;
31298;SDS011;17927;52.350;13.402;2023-11-21T13:16:56;2.38;;;2.00;;
31298;SDS011;17927;52.350;13.402;2023-11-21T13:19:22;1.75;;;1.65;;
31298;SDS011;17927;52.350;13.402;2023-11-21T13:21:49;1.95;;;1.85;;
31298;SDS011;17927;52.350;13.402;2023-11-21T13:24:14;3.00;;;1.92;;
31298;SDS011;17927;52.350;13.402;2023-11-21T13:26:39;2.80;;;2.08;;
31298;SDS011;17927;52.350;13.402;2023-11-21T13:29:05;2.05;;;1.77;;
31298;SDS011;17927;52.350;13.402;2023-11-21T13:31:30;1.90;;;1.80;;
31298;SDS011;17927;52.350;13.402;2023-11-21T13:33:57;2.63;;;1.77;;
31298;SDS011;17927;52.350;13.402;2023-11-21T13:36:29;1.70;;;1.60;;
31298;SDS011;17927;52.350;13.402;2023-11-21T13:38:57;1.92;;;1.83;;
31298;SDS011;17927;52.350;13.402;2023-11-21T13:41:23;2.10;;;1.90;;
31298;SDS011;17927;52.350;13.402;2023-11-21T13:43:55;2.78;;;2.58;;
31298;SDS011;17927;52.350;13.402;2023-11-21T13:46:28;3.95;;;2.25;;
31298;SDS011;17927;52.350;13.402;2023-11-21T13:48:59;1.70;;;1.60;;
31298;SDS011;17927;52.350;13.402;2023-11-21T13:51:24;1.63;;;1.52;;
31298;SDS011;17927;52.350;13.402;2023-11-21T13:54:02;1.67;;;1.58;;
31298;SDS011;17927;52.350;13.402;2023-11-21T13:56:30;2.45;;;1.88;;
31298;SDS011;17927;52.350;13.402;2023-11-21T13:58:56;1.75;;;1.65;;
31298;SDS011;17927;52.350;13.402;2023-11-21T14:01:24;1.88;;;1.77;;
31298;SDS011;17927;52.350;13.402;2023-11-21T14:03:58;1.98;;;1.77;;
31298;SDS011;17927;52.350;13.402;2023-11-21T14:06:34;3.28;;;2.00;;
31298;SDS011;17927;52.350;13.402;2023-11-21T14:09:08;2.22;;;2.10;;
31298;SDS011;17927;52.350;13.402;2023-11-21T14:11:34;3.45;;;2.60;;
31298;SDS011;17927;52.350;13.402;2023-11-21T14:14:03;3.20;;;2.90;;
31298;SDS011;17927;52.350;13.402;2023-11-21T14:16:28;3.35;;;3.05;;
31298;SDS011;17927;52.350;13.402;2023-11-21T14:18:53;3.40;;;3.10;;
31298;SDS011;17927;52.350;13.402;2023-11-21T14:21:26;3.28;;;2.97;;
31298;SDS011;17927;52.350;13.402;2023-11-21T14:23:52;3.63;;;2.80;;
31298;SDS011;17927;52.350;13.402;2023-11-21T14:26:19;3.47;;;3.17;;
31298;SDS011;17927;52.350;13.402;2023-11-21T14:28:45;3.20;;;3.00;;
31298;SDS011;17927;52.350;13.402;2023-11-21T14:31:12;4.25;;;3.38;;
31298;SDS011;17927;52.350;13.402;2023-11-21T14:33:40;4.03;;;3.55;;
31298;SDS011;17927;52.350;13.402;2023-11-21T14:36:06;4.07;;;3.35;;
31298;SDS011;17927;52.350;13.402;2023-11-21T14:38:34;4.75;;;3.05;;
31298;SDS011;17927;52.350;13.402;2023-11-21T14:41:00;3.88;;;3.47;;
31298;SDS011;17927;52.350;13.402;2023-11-21T14:43:25;3.35;;;3.10;;
31298;SDS011;17927;52.350;13.402;2023-11-21T14:45:54;3.00;;;2.75;;